Time;durP1;ratioP1;P1;durP2;ratioP2;P2;SDS_P1;SDS_P2;PMS_P1;PMS_P2;Temp;Humidity;BMP_temperature;BMP_pressure;BME280_temperature;BME280_humidity;BME280_pressure;Samples;Min_cycle;Max_cycle;Signal;HPM_P1;HPM_P2
2021/03/28 00:00:00;;;;;;;13.98;9.60;;;;;;;7.94;60.62;100063.31;5033129;28;20033;-80
2021/03/28 00:02:39;;;;;;;17.83;11.32;;;;;;;7.91;60.64;100061.13;5038407;28;20043;-81
2021/03/28 00:05:07;;;;;;;15.05;10.15;;;;;;;7.87;61.04;100058.09;5045897;28;20025;-79
2021/03/28 00:07:45;;;;;;;16.60;10.07;;;;;;;7.84;60.65;100055.91;5050233;28;20500;-78
2021/03/28 00:10:41;;;;;;;16.60;10.38;;;;;;;7.80;61.25;100068.06;5051081;28;20397;-79
2021/03/28 00:13:13;;;;;;;16.42;9.45;;;;;;;7.75;61.28;100060.78;5048647;28;20043;-79
2021/03/28 00:15:41;;;;;;;16.88;9.23;;;;;;;7.71;60.88;100064.16;5050593;28;20025;-78
2021/03/28 00:18:25;;;;;;;16.05;11.40;;;;;;;7.66;61.30;100068.28;5049149;28;20041;-79
2021/03/28 00:21:09;;;;;;;11.85;10.20;;;;;;;7.62;60.91;100066.34;5052110;28;20052;-81
2021/03/28 00:24:16;;;;;;;16.70;11.90;;;;;;;7.58;61.37;100065.16;5073831;28;20139;-81
2021/03/28 00:26:46;;;;;;;18.55;12.82;;;;;;;7.53;61.45;100063.19;5068339;28;20096;-81
2021/03/28 00:29:23;;;;;;;19.38;12.27;;;;;;;7.49;61.39;100057.53;5033987;28;20030;-81
2021/03/28 00:32:00;;;;;;;16.88;12.07;;;;;;;7.45;61.21;100061.69;5031843;28;20470;-80
2021/03/28 00:34:27;;;;;;;16.90;12.00;;;;;;;7.41;61.31;100057.88;5029746;28;20037;-80
2021/03/28 00:37:08;;;;;;;17.98;12.15;;;;;;;7.38;60.65;100066.31;5030585;28;20055;-79
2021/03/28 00:39:40;;;;;;;15.32;10.07;;;;;;;7.32;60.94;100060.06;5051037;28;20029;-78
2021/03/28 00:42:13;;;;;;;17.23;10.60;;;;;;;7.29;60.59;100060.50;5049223;28;20388;-77
2021/03/28 00:44:53;;;;;;;16.13;10.05;;;;;;;7.25;61.13;100059.38;5050304;28;20486;-81
2021/03/28 00:47:22;;;;;;;13.98;7.03;;;;;;;7.22;60.46;100057.16;5029802;28;20124;-79
2021/03/28 00:50:07;;;;;;;12.43;8.68;;;;;;;7.17;60.46;100060.50;5029029;28;20022;-78
2021/03/28 00:52:37;;;;;;;10.88;7.32;;;;;;;7.15;60.85;100057.25;5044802;28;20048;-78
2021/03/28 00:55:15;;;;;;;10.90;7.07;;;;;;;7.12;60.55;100055.03;5029292;28;20025;-78
2021/03/28 01:00:21;;;;;;;11.25;6.47;;;;;;;7.07;61.15;100059.41;5528398;23;20060;-80
2021/03/28 01:05:31;;;;;;;10.00;7.10;;;;;;;7.00;60.60;100051.56;5316017;22;20053;-78
2021/03/28 01:08:04;;;;;;;11.20;7.22;;;;;;;7.01;61.01;100053.97;5066597;28;20040;-77
2021/03/28 01:11:07;;;;;;;11.02;6.82;;;;;;;7.00;60.95;100062.19;5054400;28;20092;-81
2021/03/28 01:13:54;;;;;;;11.68;7.10;;;;;;;6.98;61.10;100065.09;5053469;28;20028;-81
2021/03/28 01:16:35;;;;;;;13.98;8.10;;;;;;;6.95;61.13;100070.03;5069280;28;20020;-81
2021/03/28 01:19:15;;;;;;;9.88;7.07;;;;;;;6.94;60.69;100061.25;5055335;28;20024;-78
2021/03/28 01:21:52;;;;;;;8.88;6.95;;;;;;;6.91;60.90;100061.72;5048604;28;20025;-78
2021/03/28 01:24:30;;;;;;;10.55;6.28;;;;;;;6.88;61.07;100057.66;5049105;28;20106;-80
2021/03/28 01:26:58;;;;;;;11.73;6.95;;;;;;;6.86;60.68;100059.72;5049361;28;20025;-78
2021/03/28 01:29:30;;;;;;;8.63;5.65;;;;;;;6.85;60.38;100054.63;5049529;28;20028;-79
2021/03/28 01:32:27;;;;;;;9.13;5.82;;;;;;;6.84;60.77;100061.00;5052619;28;20032;-80
2021/03/28 01:35:01;;;;;;;8.90;5.40;;;;;;;6.84;60.67;100061.00;5053456;28;20025;-77
2021/03/28 01:46:17;;;;;;;8.60;5.07;;;;;;;6.84;59.93;100058.31;5077360;28;20386;-80
2021/03/28 01:48:59;;;;;;;9.07;6.00;;;;;;;6.82;59.92;100055.91;5056746;28;20092;-79
2021/03/28 01:51:51;;;;;;;9.75;6.13;;;;;;;6.81;59.87;100050.78;5088984;28;20029;-80
2021/03/28 02:16:14;;;;;;;15.05;7.95;;;;;;;6.27;60.08;100055.97;6126166;23;20135;-82
2021/03/28 02:25:44;;;;;;;15.55;9.13;;;;;;;6.09;60.18;100066.38;6054346;23;20037;-81
2021/03/28 02:28:27;;;;;;;16.23;9.63;;;;;;;6.04;60.15;100073.38;4922769;29;20107;-79
2021/03/28 02:31:34;;;;;;;14.20;7.93;;;;;;;5.99;60.29;100065.28;4918838;29;20044;-80
2021/03/28 02:34:27;;;;;;;13.10;7.97;;;;;;;5.90;60.51;100068.19;4897196;29;20047;-80
2021/03/28 02:37:33;;;;;;;11.55;6.30;;;;;;;5.88;60.51;100072.09;4924480;29;20043;-80
2021/03/28 02:40:36;;;;;;;14.15;7.10;;;;;;;5.79;60.37;100074.22;4881812;29;20048;-80
2021/03/28 02:43:32;;;;;;;12.90;7.15;;;;;;;5.73;60.42;100072.44;4941487;28;20038;-80
2021/03/28 02:46:20;;;;;;;8.88;6.45;;;;;;;5.67;60.54;100079.41;4901135;29;20039;-79
2021/03/28 02:48:45;;;;;;;12.35;7.40;;;;;;;5.61;60.28;100086.44;4914697;29;20043;-78
2021/03/28 02:51:38;;;;;;;14.35;7.57;;;;;;;5.57;60.77;100087.06;4908608;29;20036;-78
2021/03/28 02:54:16;;;;;;;9.70;7.07;;;;;;;5.50;60.75;100084.47;4918005;29;20031;-79
2021/03/28 02:57:09;;;;;;;13.43;7.77;;;;;;;5.44;60.77;100088.81;4918121;29;20105;-77
2021/03/28 02:59:57;;;;;;;11.60;7.18;;;;;;;5.40;60.74;100086.78;4918198;29;20335;-78
2021/03/28 03:02:41;;;;;;;8.00;6.22;;;;;;;5.34;60.88;100092.97;4918477;29;20031;-77
2021/03/28 03:19:11;;;;;;;;;;;;;;;5.06;60.87;100094.97;5125677;23;20105;-79
2021/03/28 03:22:22;;;;;;;15.43;10.60;;;;;;;5.03;60.89;100094.56;4924555;29;20385;-75
2021/03/28 03:25:09;;;;;;;11.15;8.27;;;;;;;5.02;61.15;100101.72;4918187;29;20041;-76
2021/03/28 03:28:32;;;;;;;14.65;9.20;;;;;;;5.00;61.15;100100.31;4945657;29;20027;-76
2021/03/28 03:31:12;;;;;;;11.88;7.85;;;;;;;4.98;60.86;100100.53;4858708;29;20541;-76
2021/03/28 03:33:46;;;;;;;12.45;6.93;;;;;;;4.96;60.96;100102.59;4882230;29;20035;-76
2021/03/28 03:36:34;;;;;;;12.32;6.88;;;;;;;4.94;60.91;100110.75;4936170;28;20514;-77
2021/03/28 03:42:56;;;;;;;6.85;5.90;;;;;;;4.85;61.05;100106.72;4978696;28;20113;-79
2021/03/28 03:46:15;;;;;;;10.93;7.28;;;;;;;4.79;61.42;100111.00;4942361;29;20038;-81
2021/03/28 03:49:30;;;;;;;11.48;7.07;;;;;;;4.75;61.44;100109.81;4897701;29;20070;-80
2021/03/28 03:52:18;;;;;;;9.70;7.53;;;;;;;4.71;61.46;100110.44;4917845;29;20043;-81
2021/03/28 03:55:14;;;;;;;9.85;7.70;;;;;;;4.69;61.57;100115.13;4916802;29;20099;-79
2021/03/28 03:58:03;;;;;;;13.75;8.20;;;;;;;4.66;61.65;100116.38;4968207;28;20071;-80
2021/03/28 04:00:36;;;;;;;;;;;;;;;4.64;61.49;100113.94;4928530;29;20038;-80
2021/03/28 04:10:25;;;;;;;14.15;7.00;;;;;;;4.56;61.82;100131.91;4960299;29;20034;-81
2021/03/28 04:13:37;;;;;;;10.15;6.63;;;;;;;4.54;62.10;100129.47;4974465;28;20057;-82
2021/03/28 04:16:23;;;;;;;12.75;7.07;;;;;;;4.59;62.04;100129.66;4907232;29;20032;-80
2021/03/28 04:19:38;;;;;;;12.27;6.82;;;;;;;4.69;62.00;100131.03;4939891;28;20035;-81
2021/03/28 04:43:34;;;;;;;8.55;6.82;;;;;;;7.16;56.83;100129.88;5196341;23;20059;-81
2021/03/28 04:46:18;;;;;;;12.60;7.05;;;;;;;7.52;55.86;100128.16;4961451;28;20404;-80
2021/03/28 04:49:21;;;;;;;13.60;8.80;;;;;;;7.98;54.34;100128.41;4959144;28;20487;-80
2021/03/28 04:52:23;;;;;;;10.35;7.20;;;;;;;8.43;53.39;100133.09;4956700;28;20254;-81
2021/03/28 04:55:08;;;;;;;13.07;8.00;;;;;;;8.89;52.91;100132.44;4974545;28;20026;-80
2021/03/28 04:58:37;;;;;;;13.05;7.63;;;;;;;9.37;50.91;100130.38;4948083;28;20024;-81
2021/03/28 05:01:24;;;;;;;11.13;7.15;;;;;;;9.87;50.51;100139.44;4876553;29;20059;-81
2021/03/28 05:08:00;;;;;;;12.25;7.70;;;;;;;10.77;47.33;100128.63;4974512;28;20093;-83
2021/03/28 05:10:48;;;;;;;12.48;8.82;;;;;;;11.18;46.66;100141.63;4938068;29;20039;-82
2021/03/28 05:13:38;;;;;;;14.27;9.65;;;;;;;11.57;45.94;100146.81;4951973;28;20121;-80
2021/03/28 05:16:41;;;;;;;14.07;9.82;;;;;;;11.92;45.05;100144.66;4938358;29;20031;-84
2021/03/28 05:19:25;;;;;;;13.50;8.48;;;;;;;12.23;44.45;100147.56;4938264;29;20526;-85
2021/03/28 05:22:09;;;;;;;8.95;6.95;;;;;;;12.57;43.06;100156.06;4938260;29;20395;-84
2021/03/28 05:25:02;;;;;;;12.32;7.25;;;;;;;12.85;42.02;100159.34;4957447;28;20029;-86
2021/03/28 05:27:59;;;;;;;10.00;7.93;;;;;;;13.09;41.70;100150.84;4957774;28;20494;-79
2021/03/28 05:30:52;;;;;;;9.40;7.55;;;;;;;13.33;41.36;100150.34;4957828;28;20081;-80
2021/03/28 05:33:33;;;;;;;9.07;6.93;;;;;;;13.55;40.43;100142.03;4951092;28;20034;-79
2021/03/28 05:36:17;;;;;;;10.35;6.68;;;;;;;13.83;40.23;100150.66;4957261;28;20030;-79
2021/03/28 05:38:52;;;;;;;16.33;10.23;;;;;;;14.04;39.77;100146.84;4956831;28;20030;-80
2021/03/28 05:41:26;;;;;;;14.95;8.45;;;;;;;14.31;39.41;100150.31;4957267;28;20062;-81
2021/03/28 05:44:19;;;;;;;13.15;8.68;;;;;;;14.54;39.29;100152.38;4957057;28;20129;-80
2021/03/28 05:47:16;;;;;;;12.95;7.72;;;;;;;14.76;38.61;100159.31;4957330;28;20022;-82
2021/03/28 05:50:15;;;;;;;11.98;7.70;;;;;;;14.97;38.30;100156.53;4957381;28;20034;-81
2021/03/28 05:53:15;;;;;;;11.40;8.15;;;;;;;15.13;37.55;100163.41;4956120;28;20085;-77
2021/03/28 05:55:56;;;;;;;14.90;10.23;;;;;;;15.23;37.04;100159.84;4957352;28;20031;-82
2021/03/28 05:58:54;;;;;;;14.90;10.18;;;;;;;15.18;37.42;100155.34;4957209;28;20049;-82
2021/03/28 06:01:34;;;;;;;10.27;6.95;;;;;;;15.24;37.20;100155.28;4957240;28;20031;-81
2021/03/28 06:04:15;;;;;;;9.10;7.25;;;;;;;15.19;37.56;100146.13;4956235;28;20105;-84
2021/03/28 06:07:02;;;;;;;12.00;7.97;;;;;;;15.17;37.49;100161.81;4948089;28;20093;-79
2021/03/28 06:09:52;;;;;;;18.20;11.02;;;;;;;15.12;37.85;100166.41;4957118;28;20031;-80
2021/03/28 06:12:40;;;;;;;13.95;9.00;;;;;;;15.06;37.66;100168.31;4958663;28;20031;-81
2021/03/28 06:15:32;;;;;;;11.98;7.40;;;;;;;14.96;37.79;100169.19;4936055;29;20067;-81
2021/03/28 06:18:29;;;;;;;10.50;7.05;;;;;;;14.86;38.02;100172.72;4937224;29;20046;-80
2021/03/28 06:21:32;;;;;;;9.00;6.60;;;;;;;14.83;38.87;100170.59;4946504;28;20089;-80
2021/03/28 06:24:21;;;;;;;10.43;7.85;;;;;;;14.76;38.97;100175.47;4952623;28;20127;-84
2021/03/28 06:27:17;;;;;;;11.20;7.97;;;;;;;14.65;39.24;100181.97;4951690;28;20483;-82
2021/03/28 06:30:02;;;;;;;11.13;7.80;;;;;;;14.61;40.34;100173.63;4943679;29;20027;-84
2021/03/28 06:32:49;;;;;;;10.23;7.32;;;;;;;14.57;40.03;100170.69;4953772;28;20610;-83
2021/03/28 06:35:36;;;;;;;15.63;8.20;;;;;;;14.64;40.89;100181.13;4955814;28;20042;-81
2021/03/28 06:38:26;;;;;;;18.40;10.20;;;;;;;14.72;40.84;100186.00;4941430;29;20047;-83
2021/03/28 06:41:13;;;;;;;12.95;8.05;;;;;;;14.80;40.94;100184.59;4936549;29;20487;-84
2021/03/28 06:44:08;;;;;;;18.00;10.35;;;;;;;14.89;40.96;100185.66;4936216;29;20507;-83
2021/03/28 06:46:58;;;;;;;15.52;10.23;;;;;;;14.93;40.03;100185.09;4937717;28;20092;-83
2021/03/28 06:49:52;;;;;;;12.65;9.13;;;;;;;14.95;40.38;100189.13;4972052;28;20027;-83
2021/03/28 06:52:37;;;;;;;18.80;10.27;;;;;;;15.03;40.92;100185.84;4956170;28;20035;-85
2021/03/28 06:55:38;;;;;;;15.40;8.57;;;;;;;15.16;40.26;100194.38;4954254;28;20030;-85
2021/03/28 06:58:22;;;;;;;15.13;8.90;;;;;;;15.25;39.56;100181.16;4955739;28;20030;-84
2021/03/28 07:01:02;;;;;;;13.73;9.05;;;;;;;15.37;39.49;100187.00;4955807;28;20027;-83
2021/03/28 07:03:50;;;;;;;13.35;10.18;;;;;;;15.47;38.97;100186.91;4955107;28;20169;-81
2021/03/28 07:06:53;;;;;;;17.42;9.77;;;;;;;15.56;38.76;100186.31;4953761;28;20086;-83
2021/03/28 07:09:43;;;;;;;16.55;9.65;;;;;;;15.62;38.40;100186.00;4936363;29;20093;-83
2021/03/28 07:12:40;;;;;;;16.58;10.45;;;;;;;15.65;37.70;100185.44;4936253;29;20023;-82
2021/03/28 07:15:28;;;;;;;20.73;11.33;;;;;;;15.62;36.57;100186.00;4936215;29;20027;-82
2021/03/28 07:18:26;;;;;;;12.90;9.20;;;;;;;15.48;36.38;100188.53;4936102;29;20278;-85
2021/03/28 07:21:11;;;;;;;12.13;8.40;;;;;;;15.31;37.07;100188.91;4936982;28;20278;-87
2021/03/28 07:23:55;;;;;;;10.85;7.90;;;;;;;15.23;37.10;100194.09;4939566;28;20030;-86
2021/03/28 07:26:49;;;;;;;10.68;7.47;;;;;;;15.09;37.07;100181.25;4954034;28;20046;-81
2021/03/28 07:29:36;;;;;;;11.50;8.13;;;;;;;15.02;38.61;100189.63;4953890;28;20038;-80
2021/03/28 07:32:58;;;;;;;10.85;7.38;;;;;;;14.89;37.65;100185.66;4955335;28;20134;-81
2021/03/28 07:35:48;;;;;;;11.43;7.68;;;;;;;14.86;38.03;100188.88;4890387;29;20092;-80
2021/03/28 07:38:19;;;;;;;9.20;6.40;;;;;;;14.72;38.68;100190.56;4882512;29;20168;-80
2021/03/28 07:40:48;;;;;;;10.65;7.10;;;;;;;14.67;38.23;100190.56;4935842;28;20407;-79
2021/03/28 07:43:38;;;;;;;12.32;8.35;;;;;;;14.64;38.58;100183.03;4955058;28;20134;-79
2021/03/28 07:46:24;;;;;;;10.43;8.07;;;;;;;14.67;38.79;100190.56;4953456;28;20030;-80
2021/03/28 07:48:52;;;;;;;14.73;7.95;;;;;;;14.70;38.85;100182.75;4944401;28;20037;-78
2021/03/28 07:51:32;;;;;;;10.65;7.35;;;;;;;14.78;38.88;100181.41;4954339;28;20029;-77
2021/03/28 07:54:20;;;;;;;16.50;8.40;;;;;;;14.86;38.06;100185.41;4954100;28;20484;-77
2021/03/28 07:56:55;;;;;;;9.27;7.95;;;;;;;14.96;39.13;100184.53;4972051;28;20026;-75
2021/03/28 07:59:55;;;;;;;13.93;9.05;;;;;;;15.01;37.48;100179.13;4953958;28;20032;-77
2021/03/28 08:02:35;;;;;;;12.82;9.27;;;;;;;15.05;38.32;100178.28;4954819;28;20023;-77
2021/03/28 08:05:45;;;;;;;16.15;8.80;;;;;;;15.15;37.69;100179.34;4969333;28;20042;-77
2021/03/28 08:08:47;;;;;;;12.65;7.80;;;;;;;15.12;37.68;100169.88;4858718;29;20036;-74
2021/03/28 08:11:27;;;;;;;10.80;8.10;;;;;;;15.17;37.46;100172.56;4871873;29;20032;-77
2021/03/28 08:14:17;;;;;;;11.25;8.07;;;;;;;15.20;37.62;100180.09;4960295;28;20106;-76
2021/03/28 08:16:54;;;;;;;13.32;8.68;;;;;;;15.24;37.49;100168.75;4939182;29;20031;-77
2021/03/28 08:19:52;;;;;;;13.45;9.68;;;;;;;15.33;38.17;100169.75;4949813;28;20026;-74
2021/03/28 08:22:27;;;;;;;15.57;9.20;;;;;;;15.34;36.76;100176.78;4971398;28;20404;-75
2021/03/28 08:25:21;;;;;;;11.10;8.88;;;;;;;15.33;36.99;100161.69;4954323;28;20029;-74
2021/03/28 08:28:13;;;;;;;14.98;9.77;;;;;;;15.35;37.20;100165.69;4963234;28;20115;-77
2021/03/28 08:30:58;;;;;;;16.90;10.65;;;;;;;15.38;37.01;100164.38;4970274;28;20023;-77
2021/03/28 08:33:42;;;;;;;15.27;9.75;;;;;;;15.41;36.40;100163.00;4936450;28;20031;-75
2021/03/28 08:36:14;;;;;;;13.43;9.55;;;;;;;15.39;36.52;100157.84;4953074;28;20030;-83
2021/03/28 08:38:39;;;;;;;16.02;9.95;;;;;;;15.47;36.56;100159.97;4935049;28;20691;-79
2021/03/28 08:41:23;;;;;;;12.70;9.38;;;;;;;15.59;36.51;100158.81;4950046;28;20035;-75
2021/03/28 08:44:07;;;;;;;14.30;9.00;;;;;;;15.69;36.49;100153.31;4957689;28;20051;-75
2021/03/28 08:47:12;;;;;;;12.00;8.95;;;;;;;15.71;35.79;100159.25;4975650;28;20086;-75
2021/03/28 08:49:40;;;;;;;11.68;8.45;;;;;;;15.82;37.26;100147.31;4958091;28;20026;-75
2021/03/28 08:52:43;;;;;;;15.00;9.70;;;;;;;15.94;35.93;100149.63;4957768;28;20086;-75
2021/03/28 08:56:02;;;;;;;13.57;8.32;;;;;;;16.09;35.94;100145.97;4975223;28;20460;-75
2021/03/28 08:58:33;;;;;;;9.23;5.97;;;;;;;16.23;35.62;100139.91;4975485;28;20030;-75
2021/03/28 09:01:12;;;;;;;9.38;6.50;;;;;;;16.41;34.67;100151.84;4975103;28;20037;-75
2021/03/28 09:04:15;;;;;;;10.80;6.75;;;;;;;16.55;34.52;100147.38;4975360;28;20387;-75
2021/03/28 09:06:56;;;;;;;15.40;8.20;;;;;;;16.63;34.03;100140.50;4957404;28;20035;-75
2021/03/28 09:09:27;;;;;;;11.95;7.47;;;;;;;16.77;34.26;100141.41;4975057;28;20034;-75
2021/03/28 09:11:57;;;;;;;5.97;4.85;;;;;;;16.87;32.95;100139.66;4957790;28;20022;-75
2021/03/28 09:15:09;;;;;;;9.73;5.03;;;;;;;16.98;32.68;100134.94;4975073;28;20108;-75
2021/03/28 09:18:15;;;;;;;6.65;4.40;;;;;;;16.96;30.71;100138.72;4975090;28;20054;-74
2021/03/28 09:21:22;;;;;;;6.68;5.05;;;;;;;17.00;31.77;100132.75;4941666;28;20039;-75
2021/03/28 09:24:07;;;;;;;5.45;4.82;;;;;;;17.01;30.98;100129.75;4944839;28;20046;-74
2021/03/28 09:26:51;;;;;;;5.53;4.15;;;;;;;17.08;31.96;100129.41;4957707;28;20109;-74
2021/03/28 09:29:45;;;;;;;6.45;5.03;;;;;;;17.12;32.03;100125.00;4974598;28;20023;-76
2021/03/28 09:32:38;;;;;;;8.00;5.40;;;;;;;17.19;31.92;100128.16;4974462;28;20104;-76
2021/03/28 09:35:34;;;;;;;6.78;4.82;;;;;;;17.29;31.84;100121.78;4974855;28;20137;-76
2021/03/28 09:38:40;;;;;;;5.90;4.47;;;;;;;17.34;31.51;100110.09;4957548;28;20023;-76
2021/03/28 09:41:21;;;;;;;5.97;4.25;;;;;;;17.42;32.00;100110.22;4947595;28;20035;-76
2021/03/28 09:44:08;;;;;;;5.82;3.83;;;;;;;17.53;31.51;100118.16;4974765;28;20039;-76
2021/03/28 09:47:02;;;;;;;5.97;4.60;;;;;;;17.55;32.58;100113.25;4974840;28;20023;-76
2021/03/28 09:49:28;;;;;;;6.40;4.47;;;;;;;17.61;31.85;100112.06;4974787;28;20031;-76
2021/03/28 09:52:28;;;;;;;5.50;4.05;;;;;;;17.62;32.12;100100.16;4956649;28;20547;-75
2021/03/28 09:55:33;;;;;;;6.88;3.95;;;;;;;17.67;32.42;100096.56;4974715;28;20027;-75
2021/03/28 09:58:37;;;;;;;5.97;4.65;;;;;;;17.71;32.35;100095.66;4973634;28;20105;-75
2021/03/28 10:01:21;;;;;;;5.45;4.38;;;;;;;17.75;32.38;100093.16;4974156;28;20030;-75
2021/03/28 10:03:55;;;;;;;6.38;4.60;;;;;;;17.80;32.46;100089.53;4974201;28;20023;-75
2021/03/28 10:06:24;;;;;;;9.07;5.85;;;;;;;17.82;32.62;100092.75;4974037;28;20034;-74
2021/03/28 10:08:58;;;;;;;7.07;5.57;;;;;;;17.86;31.81;100086.47;4974111;28;20102;-74
2021/03/28 10:11:51;;;;;;;7.53;5.65;;;;;;;17.93;31.54;100092.28;4956735;28;20078;-75
2021/03/28 10:14:32;;;;;;;7.55;4.90;;;;;;;17.97;32.56;100081.69;4974050;28;20014;-75
2021/03/28 10:17:24;;;;;;;6.55;5.18;;;;;;;18.02;31.38;100089.72;4973758;28;20027;-75
2021/03/28 10:19:54;;;;;;;5.90;4.63;;;;;;;18.01;31.88;100081.91;4956760;28;20505;-76
2021/03/28 10:22:32;;;;;;;6.07;4.88;;;;;;;18.11;31.77;100083.59;4973866;28;20034;-75
2021/03/28 10:25:15;;;;;;;5.55;4.32;;;;;;;18.15;30.60;100084.59;4974103;28;20093;-74
2021/03/28 10:27:40;;;;;;;6.05;4.28;;;;;;;18.18;32.11;100081.28;4974048;28;20030;-76
2021/03/28 10:30:16;;;;;;;8.13;5.35;;;;;;;18.19;34.10;100082.91;4956357;28;20390;-76
2021/03/28 10:32:58;;;;;;;6.45;4.70;;;;;;;18.24;32.22;100082.78;4956400;28;20439;-76
2021/03/28 10:35:27;;;;;;;6.95;4.57;;;;;;;18.24;32.84;100074.66;4956404;28;20118;-76
2021/03/28 10:38:10;;;;;;;5.45;4.90;;;;;;;18.16;34.13;100084.31;4973507;28;20546;-76
2021/03/28 10:41:30;;;;;;;6.90;5.28;;;;;;;18.19;32.43;100069.38;4973852;28;20023;-76
2021/03/28 10:44:30;;;;;;;6.50;3.80;;;;;;;18.25;30.82;100076.28;4917438;28;20042;-76
2021/03/28 10:47:05;;;;;;;11.57;4.93;;;;;;;18.33;31.71;100063.94;4973500;28;20026;-77
2021/03/28 10:50:07;;;;;;;6.20;4.13;;;;;;;18.38;31.87;100061.94;4973709;28;20107;-77
2021/03/28 10:53:10;;;;;;;4.18;3.78;;;;;;;18.50;31.53;100064.09;4956067;28;20019;-75
2021/03/28 10:55:56;;;;;;;5.43;4.25;;;;;;;18.56;31.35;100060.16;4973258;28;20026;-76
2021/03/28 10:58:49;;;;;;;7.22;4.85;;;;;;;18.68;30.86;100053.44;4955761;28;20466;-76
2021/03/28 11:01:38;;;;;;;12.00;7.55;;;;;;;18.77;30.44;100048.06;4973079;28;20030;-76
2021/03/28 11:04:18;;;;;;;7.60;5.35;;;;;;;18.84;31.21;100051.97;4973009;28;20034;-76
2021/03/28 11:06:50;;;;;;;6.18;4.47;;;;;;;18.91;29.63;100045.31;4972945;28;20037;-76
2021/03/28 11:09:34;;;;;;;8.30;5.55;;;;;;;19.00;30.32;100043.50;4955612;28;20502;-76
2021/03/28 11:12:09;;;;;;;7.22;4.88;;;;;;;19.08;30.62;100047.38;4973095;28;20027;-76
2021/03/28 11:14:34;;;;;;;6.22;4.90;;;;;;;19.13;29.87;100041.84;4955274;28;20023;-76
2021/03/28 11:17:18;;;;;;;19.45;7.38;;;;;;;19.17;29.50;100043.63;4973013;28;20023;-76
2021/03/28 11:20:01;;;;;;;6.63;4.72;;;;;;;19.18;28.21;100034.38;4972831;28;20069;-76
2021/03/28 11:22:48;;;;;;;5.95;5.18;;;;;;;19.17;28.70;100037.41;4972832;28;20037;-76
2021/03/28 11:25:16;;;;;;;12.57;6.63;;;;;;;19.18;29.42;100033.59;4955366;28;20030;-76
2021/03/28 11:27:54;;;;;;;;;;;;;;;19.21;29.32;100030.22;4973351;28;20105;-76
2021/03/28 11:30:42;;;;;;;7.05;4.55;;;;;;;19.25;29.41;100019.56;4972645;28;20259;-75
2021/03/28 11:33:31;;;;;;;7.65;5.63;;;;;;;19.25;29.06;100025.00;4955126;28;20061;-76
2021/03/28 11:36:02;;;;;;;9.15;4.90;;;;;;;19.28;28.87;100018.97;4955317;28;20097;-76
2021/03/28 11:38:40;;;;;;;5.85;4.60;;;;;;;19.24;28.50;100018.78;4972357;28;20026;-76
2021/03/28 11:41:06;;;;;;;6.47;5.38;;;;;;;19.30;29.41;100014.81;4955179;28;20030;-76
2021/03/28 11:43:37;;;;;;;8.10;4.72;;;;;;;19.32;28.97;100006.38;4972784;28;20113;-76
2021/03/28 11:46:05;;;;;;;6.50;4.82;;;;;;;19.33;28.02;100003.38;4972902;28;20058;-76
2021/03/28 11:48:48;;;;;;;;;;;;;;;19.35;27.84;100003.06;4955494;28;20121;-76
2021/03/28 11:51:41;;;;;;;4.28;3.55;;;;;;;19.36;27.76;99997.31;4972359;28;19917;-76
2021/03/28 11:54:10;;;;;;;4.78;4.15;;;;;;;19.41;27.29;99996.38;4972252;28;20109;-76
2021/03/28 11:56:56;;;;;;;5.20;4.00;;;;;;;19.43;26.40;99988.75;4972501;28;20082;-76
2021/03/28 11:59:25;;;;;;;5.65;3.83;;;;;;;19.47;26.48;99997.03;4972528;28;20117;-76
2021/03/28 12:02:03;;;;;;;5.18;3.88;;;;;;;19.53;27.20;99984.94;4972510;28;20015;-76
2021/03/28 12:04:38;;;;;;;9.27;4.45;;;;;;;19.61;26.67;99991.50;4972136;28;20022;-76
2021/03/28 12:07:15;;;;;;;4.80;3.85;;;;;;;19.66;26.43;99988.66;4972165;28;20501;-76
2021/03/28 12:09:47;;;;;;;4.72;3.97;;;;;;;19.70;27.02;99984.22;4972671;28;20031;-75
2021/03/28 12:12:21;;;;;;;4.43;3.78;;;;;;;19.71;25.38;99982.28;4971946;28;20027;-75
2021/03/28 12:14:46;;;;;;;4.57;4.13;;;;;;;19.74;26.75;99982.47;4972149;28;20029;-75
2021/03/28 12:17:12;;;;;;;7.05;4.35;;;;;;;19.80;26.50;99981.19;4971578;28;20027;-76
2021/03/28 12:19:54;;;;;;;5.32;4.15;;;;;;;19.85;25.48;99983.00;4972103;28;20023;-75
2021/03/28 12:22:30;;;;;;;5.35;3.92;;;;;;;19.90;26.35;99980.13;4971635;28;20487;-75
2021/03/28 12:25:00;;;;;;;7.05;4.35;;;;;;;19.93;25.49;99978.72;4971676;28;20049;-75
2021/03/28 12:27:40;;;;;;;5.65;4.03;;;;;;;19.95;25.21;99965.63;4971390;28;20063;-75
2021/03/28 12:30:29;;;;;;;4.20;3.80;;;;;;;20.01;25.67;99972.50;4971905;28;20022;-75
2021/03/28 12:32:57;;;;;;;11.38;5.05;;;;;;;20.03;25.84;99964.84;4961004;28;20043;-75
2021/03/28 12:35:32;;;;;;;5.97;4.20;;;;;;;20.07;25.03;99959.59;4971413;28;20027;-75
2021/03/28 12:38:33;;;;;;;8.15;5.28;;;;;;;20.11;25.67;99958.63;4971221;28;20031;-75
2021/03/28 12:41:12;;;;;;;6.18;4.38;;;;;;;20.09;23.51;99960.03;4953767;28;20038;-75
2021/03/28 12:44:04;;;;;;;4.88;3.80;;;;;;;20.10;24.18;99965.19;4971091;28;20499;-76
2021/03/28 12:46:29;;;;;;;5.47;4.28;;;;;;;20.16;24.42;99957.66;4933546;28;20602;-75
2021/03/28 12:49:07;;;;;;;7.10;4.25;;;;;;;20.16;23.63;99957.66;4953859;28;20023;-75
2021/03/28 12:51:35;;;;;;;8.35;5.07;;;;;;;20.18;23.73;99944.56;4953945;28;20479;-76
2021/03/28 12:54:01;;;;;;;7.00;4.43;;;;;;;20.22;24.13;99952.88;4971847;28;20035;-76
2021/03/28 12:56:31;;;;;;;5.53;4.35;;;;;;;20.27;23.72;99944.56;4954046;28;20085;-76
2021/03/28 12:58:57;;;;;;;8.57;4.70;;;;;;;20.31;23.74;99942.81;4971635;28;20030;-76
2021/03/28 13:01:30;;;;;;;4.68;4.18;;;;;;;20.34;23.35;99950.34;4971270;28;20386;-75
2021/03/28 13:04:17;;;;;;;4.80;4.10;;;;;;;20.38;23.87;99945.84;4972054;28;20526;-76
2021/03/28 13:06:47;;;;;;;4.65;4.00;;;;;;;20.40;22.48;99946.34;4954407;28;20086;-75
2021/03/28 13:09:15;;;;;;;4.97;4.38;;;;;;;20.46;23.46;99944.25;4971314;28;20450;-75
2021/03/28 13:11:53;;;;;;;6.68;4.32;;;;;;;20.47;23.52;99937.72;4971550;28;20387;-75
2021/03/28 13:14:43;;;;;;;5.05;4.45;;;;;;;20.54;23.91;99943.44;4971572;28;20030;-75
2021/03/28 13:17:14;;;;;;;7.25;3.67;;;;;;;20.58;23.93;99941.69;4971612;28;20113;-75
2021/03/28 13:19:52;;;;;;;9.55;4.20;;;;;;;20.63;24.21;99944.25;4971681;28;20023;-75
2021/03/28 13:22:38;;;;;;;5.38;4.15;;;;;;;20.68;23.39;99940.56;4971462;28;20030;-75
2021/03/28 13:25:16;;;;;;;6.30;4.13;;;;;;;20.70;24.17;99946.47;4971880;28;20030;-75
2021/03/28 13:27:42;;;;;;;6.15;4.10;;;;;;;20.76;24.68;99941.69;4974449;28;20054;-75
2021/03/28 13:30:22;;;;;;;9.23;3.80;;;;;;;20.75;24.50;99926.50;4975406;28;20093;-75
2021/03/28 13:32:51;;;;;;;5.82;3.33;;;;;;;20.78;24.37;99932.09;4975117;28;20042;-75
2021/03/28 13:35:37;;;;;;;8.25;4.35;;;;;;;20.83;25.17;99931.13;4974858;28;20026;-75
2021/03/28 13:38:36;;;;;;;5.63;4.35;;;;;;;20.87;24.97;99926.66;4974619;28;20170;-75
2021/03/28 13:41:27;;;;;;;7.35;3.60;;;;;;;20.84;24.91;99927.28;4915554;28;20038;-76
2021/03/28 13:44:19;;;;;;;7.60;3.92;;;;;;;20.74;24.57;99933.06;4974413;28;20051;-75
2021/03/28 13:46:55;;;;;;;4.57;3.85;;;;;;;20.70;24.24;99923.94;4957321;28;20026;-76
2021/03/28 13:49:30;;;;;;;4.57;3.78;;;;;;;20.73;25.37;99931.47;4974167;28;20023;-75
2021/03/28 13:52:16;;;;;;;5.38;4.03;;;;;;;20.72;25.02;99927.94;4974608;28;20027;-76
2021/03/28 13:54:45;;;;;;;6.63;4.05;;;;;;;20.69;25.17;99931.28;4957246;28;20122;-76
2021/03/28 13:57:15;;;;;;;7.68;4.72;;;;;;;20.63;24.79;99936.09;4974448;28;20062;-76
2021/03/28 14:00:17;;;;;;;5.32;3.60;;;;;;;20.53;26.02;99933.72;4956843;28;20025;-75
2021/03/28 14:02:42;;;;;;;5.15;4.20;;;;;;;20.27;26.63;99929.06;4943439;28;20035;-75
2021/03/28 14:05:15;;;;;;;4.88;4.00;;;;;;;20.13;27.06;99920.28;4974167;28;20396;-75
2021/03/28 14:07:40;;;;;;;6.03;4.03;;;;;;;19.99;26.51;99912.28;4956816;28;20379;-75
2021/03/28 14:10:06;;;;;;;5.72;4.70;;;;;;;19.87;26.92;99922.97;4974054;28;20022;-75
2021/03/28 14:12:34;;;;;;;5.90;5.03;;;;;;;19.77;27.22;99937.59;4974076;28;20019;-75
2021/03/28 14:15:09;;;;;;;5.32;3.65;;;;;;;19.63;26.97;99930.38;4974283;28;20026;-76